sensor_id;sensor_type;location;lat;lon;timestamp;P1;durP1;ratioP1;P2;durP2;ratioP2
81160;SDS011;70637;48.514;14.500;2024-01-16T00:00:07;3.10;;;1.20;;
81160;SDS011;70637;48.514;14.500;2024-01-16T00:02:34;2.80;;;1.20;;
81160;SDS011;70637;48.514;14.500;2024-01-16T00:04:59;4.82;;;1.40;;
81160;SDS011;70637;48.514;14.500;2024-01-16T00:07:25;3.05;;;1.30;;
81160;SDS011;70637;48.514;14.500;2024-01-16T00:09:51;3.00;;;1.35;;
81160;SDS011;70637;48.514;14.500;2024-01-16T00:12:18;1.58;;;0.82;;
81160;SDS011;70637;48.514;14.500;2024-01-16T00:14:44;3.13;;;1.13;;
81160;SDS011;70637;48.514;14.500;2024-01-16T00:17:10;3.03;;;1.10;;
81160;SDS011;70637;48.514;14.500;2024-01-16T00:19:36;2.92;;;1.20;;
81160;SDS011;70637;48.514;14.500;2024-01-16T00:22:02;3.17;;;1.35;;
81160;SDS011;70637;48.514;14.500;2024-01-16T00:24:29;3.08;;;1.10;;
81160;SDS011;70637;48.514;14.500;2024-01-16T00:26:55;2.95;;;1.10;;
81160;SDS011;70637;48.514;14.500;2024-01-16T00:29:21;3.53;;;1.23;;
81160;SDS011;70637;48.514;14.500;2024-01-16T00:31:46;1.42;;;0.70;;
81160;SDS011;70637;48.514;14.500;2024-01-16T00:34:12;2.20;;;1.13;;
81160;SDS011;70637;48.514;14.500;2024-01-16T00:36:39;3.28;;;1.30;;
81160;SDS011;70637;48.514;14.500;2024-01-16T00:39:05;2.50;;;1.00;;
81160;SDS011;70637;48.514;14.500;2024-01-16T00:41:30;3.33;;;0.90;;
81160;SDS011;70637;48.514;14.500;2024-01-16T00:43:56;3.38;;;1.08;;
81160;SDS011;70637;48.514;14.500;2024-01-16T00:46:21;3.28;;;1.13;;
81160;SDS011;70637;48.514;14.500;2024-01-16T00:48:47;2.28;;;1.20;;
81160;SDS011;70637;48.514;14.500;2024-01-16T00:51:13;1.58;;;1.00;;
81160;SDS011;70637;48.514;14.500;2024-01-16T00:53:42;3.58;;;1.38;;
81160;SDS011;70637;48.514;14.500;2024-01-16T00:56:08;1.60;;;0.90;;
81160;SDS011;70637;48.514;14.500;2024-01-16T00:58:35;2.63;;;1.02;;
81160;SDS011;70637;48.514;14.500;2024-01-16T01:01:01;2.47;;;1.15;;
81160;SDS011;70637;48.514;14.500;2024-01-16T01:03:26;3.00;;;1.15;;
81160;SDS011;70637;48.514;14.500;2024-01-16T01:05:52;2.05;;;1.13;;
81160;SDS011;70637;48.514;14.500;2024-01-16T01:08:18;1.73;;;0.80;;
81160;SDS011;70637;48.514;14.500;2024-01-16T01:10:44;3.35;;;1.10;;
81160;SDS011;70637;48.514;14.500;2024-01-16T01:13:10;3.13;;;1.13;;
81160;SDS011;70637;48.514;14.500;2024-01-16T01:15:35;2.97;;;1.00;;
81160;SDS011;70637;48.514;14.500;2024-01-16T01:18:01;2.53;;;1.20;;
81160;SDS011;70637;48.514;14.500;2024-01-16T01:20:27;2.47;;;1.10;;
81160;SDS011;70637;48.514;14.500;2024-01-16T01:22:52;2.45;;;1.00;;
81160;SDS011;70637;48.514;14.500;2024-01-16T01:25:18;1.70;;;1.02;;
81160;SDS011;70637;48.514;14.500;2024-01-16T01:27:44;2.08;;;0.98;;
81160;SDS011;70637;48.514;14.500;2024-01-16T01:30:09;2.95;;;1.15;;
81160;SDS011;70637;48.514;14.500;2024-01-16T01:32:36;2.50;;;1.08;;
81160;SDS011;70637;48.514;14.500;2024-01-16T01:35:02;1.63;;;0.80;;
81160;SDS011;70637;48.514;14.500;2024-01-16T01:37:28;2.28;;;1.02;;
81160;SDS011;70637;48.514;14.500;2024-01-16T01:39:54;2.22;;;1.05;;
81160;SDS011;70637;48.514;14.500;2024-01-16T01:42:20;2.15;;;1.00;;
81160;SDS011;70637;48.514;14.500;2024-01-16T01:44:45;2.30;;;1.15;;
81160;SDS011;70637;48.514;14.500;2024-01-16T01:47:11;2.30;;;1.15;;
81160;SDS011;70637;48.514;14.500;2024-01-16T01:49:36;2.58;;;0.80;;
81160;SDS011;70637;48.514;14.500;2024-01-16T01:52:03;1.83;;;1.00;;
81160;SDS011;70637;48.514;14.500;2024-01-16T01:54:31;1.95;;;1.10;;
81160;SDS011;70637;48.514;14.500;2024-01-16T01:57:00;2.35;;;1.02;;
81160;SDS011;70637;48.514;14.500;2024-01-16T01:59:26;3.72;;;1.02;;
81160;SDS011;70637;48.514;14.500;2024-01-16T02:01:58;3.88;;;0.90;;
81160;SDS011;70637;48.514;14.500;2024-01-16T02:04:24;2.13;;;0.90;;
81160;SDS011;70637;48.514;14.500;2024-01-16T02:06:52;2.78;;;1.00;;
81160;SDS011;70637;48.514;14.500;2024-01-16T02:09:19;1.33;;;0.82;;
81160;SDS011;70637;48.514;14.500;2024-01-16T02:11:45;2.00;;;1.05;;
81160;SDS011;70637;48.514;14.500;2024-01-16T02:14:10;1.95;;;0.80;;
81160;SDS011;70637;48.514;14.500;2024-01-16T02:16:37;1.65;;;0.90;;
81160;SDS011;70637;48.514;14.500;2024-01-16T02:19:04;1.50;;;0.75;;
81160;SDS011;70637;48.514;14.500;2024-01-16T02:21:32;2.15;;;0.70;;
81160;SDS011;70637;48.514;14.500;2024-01-16T02:24:03;1.45;;;0.77;;
81160;SDS011;70637;48.514;14.500;2024-01-16T02:26:30;1.58;;;1.00;;
81160;SDS011;70637;48.514;14.500;2024-01-16T02:28:56;0.82;;;0.75;;
81160;SDS011;70637;48.514;14.500;2024-01-16T02:31:22;1.75;;;0.88;;
81160;SDS011;70637;48.514;14.500;2024-01-16T02:33:48;1.63;;;0.90;;
81160;SDS011;70637;48.514;14.500;2024-01-16T02:36:13;0.95;;;0.80;;
81160;SDS011;70637;48.514;14.500;2024-01-16T02:38:39;1.65;;;0.90;;
81160;SDS011;70637;48.514;14.500;2024-01-16T02:41:05;2.38;;;0.90;;
81160;SDS011;70637;48.514;14.500;2024-01-16T02:43:32;1.70;;;0.88;;
81160;SDS011;70637;48.514;14.500;2024-01-16T02:45:58;1.83;;;0.90;;
81160;SDS011;70637;48.514;14.500;2024-01-16T02:48:23;1.23;;;0.82;;
81160;SDS011;70637;48.514;14.500;2024-01-16T02:50:49;1.70;;;0.80;;
81160;SDS011;70637;48.514;14.500;2024-01-16T02:53:14;1.52;;;0.90;;
81160;SDS011;70637;48.514;14.500;2024-01-16T02:55:40;1.58;;;0.88;;
81160;SDS011;70637;48.514;14.500;2024-01-16T02:58:06;1.58;;;0.82;;
81160;SDS011;70637;48.514;14.500;2024-01-16T03:00:31;1.73;;;0.90;;
81160;SDS011;70637;48.514;14.500;2024-01-16T03:02:57;1.20;;;0.80;;
81160;SDS011;70637;48.514;14.500;2024-01-16T03:05:23;2.25;;;0.90;;
81160;SDS011;70637;48.514;14.500;2024-01-16T03:07:49;0.90;;;0.80;;
81160;SDS011;70637;48.514;14.500;2024-01-16T03:10:15;1.13;;;0.88;;
81160;SDS011;70637;48.514;14.500;2024-01-16T03:12:40;1.05;;;0.68;;
81160;SDS011;70637;48.514;14.500;2024-01-16T03:15:06;1.95;;;0.90;;
81160;SDS011;70637;48.514;14.500;2024-01-16T03:17:32;1.17;;;0.80;;
81160;SDS011;70637;48.514;14.500;2024-01-16T03:19:57;1.83;;;0.85;;
81160;SDS011;70637;48.514;14.500;2024-01-16T03:22:23;1.77;;;1.10;;
81160;SDS011;70637;48.514;14.500;2024-01-16T03:24:49;1.58;;;0.70;;
81160;SDS011;70637;48.514;14.500;2024-01-16T03:27:15;1.75;;;0.82;;
81160;SDS011;70637;48.514;14.500;2024-01-16T03:29:41;2.00;;;0.90;;
81160;SDS011;70637;48.514;14.500;2024-01-16T03:32:07;2.00;;;0.88;;
81160;SDS011;70637;48.514;14.500;2024-01-16T03:34:33;2.03;;;0.95;;
81160;SDS011;70637;48.514;14.500;2024-01-16T03:36:58;0.70;;;0.60;;
81160;SDS011;70637;48.514;14.500;2024-01-16T03:39:24;0.95;;;0.70;;
81160;SDS011;70637;48.514;14.500;2024-01-16T03:41:50;1.02;;;0.80;;
81160;SDS011;70637;48.514;14.500;2024-01-16T03:44:15;1.55;;;0.80;;
81160;SDS011;70637;48.514;14.500;2024-01-16T03:46:41;1.85;;;0.90;;
81160;SDS011;70637;48.514;14.500;2024-01-16T03:49:09;2.10;;;0.70;;
81160;SDS011;70637;48.514;14.500;2024-01-16T03:51:35;0.93;;;0.77;;
81160;SDS011;70637;48.514;14.500;2024-01-16T03:54:00;1.40;;;0.70;;
81160;SDS011;70637;48.514;14.500;2024-01-16T03:56:26;0.88;;;0.60;;
81160;SDS011;70637;48.514;14.500;2024-01-16T03:58:51;1.85;;;1.00;;
81160;SDS011;70637;48.514;14.500;2024-01-16T04:01:17;1.10;;;0.90;;
81160;SDS011;70637;48.514;14.500;2024-01-16T04:03:43;1.17;;;0.70;;
81160;SDS011;70637;48.514;14.500;2024-01-16T04:06:16;0.85;;;0.70;;
81160;SDS011;70637;48.514;14.500;2024-01-16T04:08:42;1.27;;;0.93;;
81160;SDS011;70637;48.514;14.500;2024-01-16T04:11:14;1.10;;;0.70;;
81160;SDS011;70637;48.514;14.500;2024-01-16T04:13:40;1.30;;;0.73;;
81160;SDS011;70637;48.514;14.500;2024-01-16T04:16:06;1.52;;;0.80;;
81160;SDS011;70637;48.514;14.500;2024-01-16T04:18:35;1.30;;;0.80;;
81160;SDS011;70637;48.514;14.500;2024-01-16T04:21:04;1.05;;;0.70;;
81160;SDS011;70637;48.514;14.500;2024-01-16T04:23:31;1.20;;;0.80;;
81160;SDS011;70637;48.514;14.500;2024-01-16T04:25:57;1.67;;;0.77;;
81160;SDS011;70637;48.514;14.500;2024-01-16T04:28:23;0.85;;;0.57;;
81160;SDS011;70637;48.514;14.500;2024-01-16T04:30:49;2.17;;;0.80;;
81160;SDS011;70637;48.514;14.500;2024-01-16T04:33:15;1.15;;;0.80;;
81160;SDS011;70637;48.514;14.500;2024-01-16T04:35:40;1.10;;;0.73;;
81160;SDS011;70637;48.514;14.500;2024-01-16T04:38:06;1.02;;;0.70;;
81160;SDS011;70637;48.514;14.500;2024-01-16T04:40:32;1.55;;;0.70;;
81160;SDS011;70637;48.514;14.500;2024-01-16T04:42:58;2.83;;;0.80;;
81160;SDS011;70637;48.514;14.500;2024-01-16T04:45:24;1.20;;;0.88;;
81160;SDS011;70637;48.514;14.500;2024-01-16T04:47:50;2.17;;;0.90;;
81160;SDS011;70637;48.514;14.500;2024-01-16T04:50:16;2.03;;;0.80;;
81160;SDS011;70637;48.514;14.500;2024-01-16T04:52:42;0.68;;;0.57;;
81160;SDS011;70637;48.514;14.500;2024-01-16T04:55:08;1.83;;;1.02;;
81160;SDS011;70637;48.514;14.500;2024-01-16T04:57:34;1.23;;;0.60;;
81160;SDS011;70637;48.514;14.500;2024-01-16T04:59:59;0.98;;;0.70;;
81160;SDS011;70637;48.514;14.500;2024-01-16T05:02:25;0.85;;;0.70;;
81160;SDS011;70637;48.514;14.500;2024-01-16T05:04:51;0.80;;;0.60;;
81160;SDS011;70637;48.514;14.500;2024-01-16T05:07:20;1.70;;;0.73;;
81160;SDS011;70637;48.514;14.500;2024-01-16T05:09:48;1.25;;;0.60;;
81160;SDS011;70637;48.514;14.500;2024-01-16T05:12:14;0.90;;;0.60;;
81160;SDS011;70637;48.514;14.500;2024-01-16T05:14:40;0.63;;;0.52;;
81160;SDS011;70637;48.514;14.500;2024-01-16T05:17:05;0.77;;;0.70;;
81160;SDS011;70637;48.514;14.500;2024-01-16T05:19:31;0.93;;;0.60;;
81160;SDS011;70637;48.514;14.500;2024-01-16T05:21:57;0.52;;;0.50;;
81160;SDS011;70637;48.514;14.500;2024-01-16T05:24:23;2.95;;;0.70;;
81160;SDS011;70637;48.514;14.500;2024-01-16T05:26:48;0.45;;;0.45;;
81160;SDS011;70637;48.514;14.500;2024-01-16T05:29:14;0.50;;;0.40;;
81160;SDS011;70637;48.514;14.500;2024-01-16T05:31:42;0.50;;;0.50;;
81160;SDS011;70637;48.514;14.500;2024-01-16T05:34:08;0.60;;;0.60;;
81160;SDS011;70637;48.514;14.500;2024-01-16T05:36:35;0.60;;;0.60;;
81160;SDS011;70637;48.514;14.500;2024-01-16T05:39:01;0.50;;;0.50;;
81160;SDS011;70637;48.514;14.500;2024-01-16T05:41:27;1.17;;;0.43;;
81160;SDS011;70637;48.514;14.500;2024-01-16T05:43:57;0.77;;;0.68;;
81160;SDS011;70637;48.514;14.500;2024-01-16T05:46:22;0.60;;;0.50;;
81160;SDS011;70637;48.514;14.500;2024-01-16T05:48:48;0.77;;;0.70;;
81160;SDS011;70637;48.514;14.500;2024-01-16T05:51:13;0.65;;;0.50;;
81160;SDS011;70637;48.514;14.500;2024-01-16T05:53:39;1.23;;;0.75;;
81160;SDS011;70637;48.514;14.500;2024-01-16T05:56:05;0.57;;;0.50;;
81160;SDS011;70637;48.514;14.500;2024-01-16T05:58:30;1.13;;;0.68;;
81160;SDS011;70637;48.514;14.500;2024-01-16T06:01:00;0.93;;;0.52;;
81160;SDS011;70637;48.514;14.500;2024-01-16T06:03:26;2.03;;;0.80;;
81160;SDS011;70637;48.514;14.500;2024-01-16T06:05:51;3.40;;;1.13;;
81160;SDS011;70637;48.514;14.500;2024-01-16T06:08:17;3.17;;;1.27;;
81160;SDS011;70637;48.514;14.500;2024-01-16T06:10:45;3.95;;;1.52;;
81160;SDS011;70637;48.514;14.500;2024-01-16T06:13:10;5.03;;;1.80;;
81160;SDS011;70637;48.514;14.500;2024-01-16T06:15:36;7.00;;;2.38;;
81160;SDS011;70637;48.514;14.500;2024-01-16T06:18:02;9.82;;;3.13;;
81160;SDS011;70637;48.514;14.500;2024-01-16T06:20:28;11.20;;;2.95;;
81160;SDS011;70637;48.514;14.500;2024-01-16T06:22:54;7.93;;;2.75;;
81160;SDS011;70637;48.514;14.500;2024-01-16T06:25:19;9.10;;;3.03;;
81160;SDS011;70637;48.514;14.500;2024-01-16T06:27:45;9.57;;;3.50;;
81160;SDS011;70637;48.514;14.500;2024-01-16T06:30:11;10.68;;;3.42;;
81160;SDS011;70637;48.514;14.500;2024-01-16T06:32:37;8.75;;;3.10;;
81160;SDS011;70637;48.514;14.500;2024-01-16T06:35:02;9.27;;;3.00;;
81160;SDS011;70637;48.514;14.500;2024-01-16T06:37:28;13.00;;;2.90;;
81160;SDS011;70637;48.514;14.500;2024-01-16T06:39:54;7.38;;;2.72;;
81160;SDS011;70637;48.514;14.500;2024-01-16T06:42:19;8.55;;;2.53;;
81160;SDS011;70637;48.514;14.500;2024-01-16T06:44:46;8.45;;;2.80;;
81160;SDS011;70637;48.514;14.500;2024-01-16T06:47:11;11.82;;;3.00;;
81160;SDS011;70637;48.514;14.500;2024-01-16T06:49:37;6.82;;;2.72;;
81160;SDS011;70637;48.514;14.500;2024-01-16T06:52:03;11.30;;;3.22;;
81160;SDS011;70637;48.514;14.500;2024-01-16T06:54:29;9.85;;;2.90;;
81160;SDS011;70637;48.514;14.500;2024-01-16T06:56:54;11.10;;;2.72;;
81160;SDS011;70637;48.514;14.500;2024-01-16T06:59:20;9.43;;;2.50;;
81160;SDS011;70637;48.514;14.500;2024-01-16T07:01:47;8.93;;;2.22;;
81160;SDS011;70637;48.514;14.500;2024-01-16T07:04:12;7.82;;;2.40;;
81160;SDS011;70637;48.514;14.500;2024-01-16T07:06:39;6.13;;;2.10;;
81160;SDS011;70637;48.514;14.500;2024-01-16T07:09:05;4.80;;;2.00;;
81160;SDS011;70637;48.514;14.500;2024-01-16T07:11:31;5.93;;;2.20;;
81160;SDS011;70637;48.514;14.500;2024-01-16T07:13:56;6.90;;;1.90;;
81160;SDS011;70637;48.514;14.500;2024-01-16T07:16:22;4.53;;;1.70;;
81160;SDS011;70637;48.514;14.500;2024-01-16T07:18:48;4.25;;;1.77;;
81160;SDS011;70637;48.514;14.500;2024-01-16T07:21:19;4.82;;;1.90;;
81160;SDS011;70637;48.514;14.500;2024-01-16T07:23:45;6.07;;;1.98;;
81160;SDS011;70637;48.514;14.500;2024-01-16T07:26:11;7.15;;;2.03;;
81160;SDS011;70637;48.514;14.500;2024-01-16T07:28:37;6.72;;;2.03;;
81160;SDS011;70637;48.514;14.500;2024-01-16T07:31:03;5.55;;;1.90;;
81160;SDS011;70637;48.514;14.500;2024-01-16T07:33:29;5.18;;;1.90;;
81160;SDS011;70637;48.514;14.500;2024-01-16T07:35:54;3.85;;;1.63;;
81160;SDS011;70637;48.514;14.500;2024-01-16T07:38:20;7.32;;;2.03;;
81160;SDS011;70637;48.514;14.500;2024-01-16T07:40:46;4.10;;;1.85;;
81160;SDS011;70637;48.514;14.500;2024-01-16T07:43:11;4.45;;;1.77;;
81160;SDS011;70637;48.514;14.500;2024-01-16T07:45:37;5.30;;;2.13;;
81160;SDS011;70637;48.514;14.500;2024-01-16T07:48:03;4.97;;;1.38;;
81160;SDS011;70637;48.514;14.500;2024-01-16T07:50:29;4.15;;;1.50;;
81160;SDS011;70637;48.514;14.500;2024-01-16T07:52:55;4.28;;;1.48;;
81160;SDS011;70637;48.514;14.500;2024-01-16T07:55:20;4.53;;;1.50;;
81160;SDS011;70637;48.514;14.500;2024-01-16T07:57:48;4.20;;;1.60;;
81160;SDS011;70637;48.514;14.500;2024-01-16T08:00:14;3.92;;;1.60;;
81160;SDS011;70637;48.514;14.500;2024-01-16T08:02:40;3.63;;;1.50;;
81160;SDS011;70637;48.514;14.500;2024-01-16T08:05:06;3.42;;;1.60;;
81160;SDS011;70637;48.514;14.500;2024-01-16T08:07:32;4.78;;;1.75;;
81160;SDS011;70637;48.514;14.500;2024-01-16T08:09:59;2.85;;;1.30;;
81160;SDS011;70637;48.514;14.500;2024-01-16T08:12:25;3.25;;;1.50;;
81160;SDS011;70637;48.514;14.500;2024-01-16T08:14:51;4.05;;;1.52;;
81160;SDS011;70637;48.514;14.500;2024-01-16T08:17:17;3.70;;;1.42;;
81160;SDS011;70637;48.514;14.500;2024-01-16T08:19:43;3.53;;;1.48;;
81160;SDS011;70637;48.514;14.500;2024-01-16T08:22:08;3.13;;;1.52;;
81160;SDS011;70637;48.514;14.500;2024-01-16T08:24:34;3.03;;;1.38;;
81160;SDS011;70637;48.514;14.500;2024-01-16T08:26:59;3.85;;;1.33;;
81160;SDS011;70637;48.514;14.500;2024-01-16T08:29:25;2.83;;;1.38;;
81160;SDS011;70637;48.514;14.500;2024-01-16T08:31:51;4.07;;;1.45;;
81160;SDS011;70637;48.514;14.500;2024-01-16T08:34:17;2.97;;;1.33;;
81160;SDS011;70637;48.514;14.500;2024-01-16T08:36:43;3.55;;;1.33;;
81160;SDS011;70637;48.514;14.500;2024-01-16T08:39:09;4.28;;;1.35;;
81160;SDS011;70637;48.514;14.500;2024-01-16T08:41:35;4.35;;;1.52;;
81160;SDS011;70637;48.514;14.500;2024-01-16T08:44:01;2.50;;;1.30;;
81160;SDS011;70637;48.514;14.500;2024-01-16T08:46:27;3.60;;;1.48;;
81160;SDS011;70637;48.514;14.500;2024-01-16T08:48:52;3.08;;;1.40;;
81160;SDS011;70637;48.514;14.500;2024-01-16T08:51:19;2.20;;;1.30;;
81160;SDS011;70637;48.514;14.500;2024-01-16T08:53:44;2.95;;;1.38;;
81160;SDS011;70637;48.514;14.500;2024-01-16T08:56:10;3.22;;;1.30;;
81160;SDS011;70637;48.514;14.500;2024-01-16T08:58:37;3.83;;;1.27;;
81160;SDS011;70637;48.514;14.500;2024-01-16T09:01:03;3.42;;;1.45;;
81160;SDS011;70637;48.514;14.500;2024-01-16T09:03:33;2.92;;;1.40;;
81160;SDS011;70637;48.514;14.500;2024-01-16T09:05:59;4.30;;;1.50;;
81160;SDS011;70637;48.514;14.500;2024-01-16T09:08:26;3.17;;;1.20;;
81160;SDS011;70637;48.514;14.500;2024-01-16T09:10:52;3.55;;;1.33;;
81160;SDS011;70637;48.514;14.500;2024-01-16T09:13:18;3.35;;;1.40;;
81160;SDS011;70637;48.514;14.500;2024-01-16T09:15:48;3.47;;;1.30;;
81160;SDS011;70637;48.514;14.500;2024-01-16T09:18:15;3.33;;;1.50;;
81160;SDS011;70637;48.514;14.500;2024-01-16T09:20:42;3.90;;;1.30;;
81160;SDS011;70637;48.514;14.500;2024-01-16T09:23:08;3.67;;;1.35;;
81160;SDS011;70637;48.514;14.500;2024-01-16T09:25:34;4.60;;;1.38;;
81160;SDS011;70637;48.514;14.500;2024-01-16T09:28:00;2.70;;;1.48;;
81160;SDS011;70637;48.514;14.500;2024-01-16T09:30:26;2.55;;;1.35;;
81160;SDS011;70637;48.514;14.500;2024-01-16T09:32:52;3.92;;;1.25;;
81160;SDS011;70637;48.514;14.500;2024-01-16T09:35:17;2.45;;;1.38;;
81160;SDS011;70637;48.514;14.500;2024-01-16T09:37:43;3.75;;;1.50;;
81160;SDS011;70637;48.514;14.500;2024-01-16T09:40:09;4.03;;;1.50;;
81160;SDS011;70637;48.514;14.500;2024-01-16T09:42:36;2.45;;;1.33;;
81160;SDS011;70637;48.514;14.500;2024-01-16T09:45:02;2.80;;;1.42;;
81160;SDS011;70637;48.514;14.500;2024-01-16T09:47:28;3.15;;;1.40;;
81160;SDS011;70637;48.514;14.500;2024-01-16T09:50:01;4.93;;;1.58;;
81160;SDS011;70637;48.514;14.500;2024-01-16T09:52:28;3.55;;;1.40;;
81160;SDS011;70637;48.514;14.500;2024-01-16T09:54:54;2.78;;;1.25;;
81160;SDS011;70637;48.514;14.500;2024-01-16T09:57:20;3.00;;;1.40;;
81160;SDS011;70637;48.514;14.500;2024-01-16T09:59:50;2.72;;;1.20;;
81160;SDS011;70637;48.514;14.500;2024-01-16T10:02:17;2.97;;;1.40;;
81160;SDS011;70637;48.514;14.500;2024-01-16T10:04:44;1.83;;;1.17;;
81160;SDS011;70637;48.514;14.500;2024-01-16T10:07:10;3.50;;;1.38;;
81160;SDS011;70637;48.514;14.500;2024-01-16T10:09:39;2.72;;;1.38;;
81160;SDS011;70637;48.514;14.500;2024-01-16T10:12:05;3.60;;;1.30;;
81160;SDS011;70637;48.514;14.500;2024-01-16T10:14:32;2.88;;;1.30;;
81160;SDS011;70637;48.514;14.500;2024-01-16T10:16:58;3.03;;;1.20;;
81160;SDS011;70637;48.514;14.500;2024-01-16T10:19:27;2.00;;;1.20;;
81160;SDS011;70637;48.514;14.500;2024-01-16T10:22:04;2.67;;;1.30;;
81160;SDS011;70637;48.514;14.500;2024-01-16T10:24:31;3.22;;;1.10;;
81160;SDS011;70637;48.514;14.500;2024-01-16T10:26:59;2.95;;;1.20;;
81160;SDS011;70637;48.514;14.500;2024-01-16T10:29:25;2.70;;;1.27;;
81160;SDS011;70637;48.514;14.500;2024-01-16T10:31:52;3.47;;;1.40;;
81160;SDS011;70637;48.514;14.500;2024-01-16T10:34:21;2.70;;;1.20;;
81160;SDS011;70637;48.514;14.500;2024-01-16T10:36:51;2.75;;;1.23;;
81160;SDS011;70637;48.514;14.500;2024-01-16T10:39:23;2.85;;;1.13;;
81160;SDS011;70637;48.514;14.500;2024-01-16T10:41:55;3.00;;;1.40;;
81160;SDS011;70637;48.514;14.500;2024-01-16T10:44:22;3.80;;;1.48;;
81160;SDS011;70637;48.514;14.500;2024-01-16T10:46:48;2.20;;;1.10;;
81160;SDS011;70637;48.514;14.500;2024-01-16T10:49:14;3.40;;;1.10;;
81160;SDS011;70637;48.514;14.500;2024-01-16T10:51:41;2.45;;;1.20;;
81160;SDS011;70637;48.514;14.500;2024-01-16T10:54:10;2.50;;;1.20;;
81160;SDS011;70637;48.514;14.500;2024-01-16T10:56:41;1.98;;;1.00;;
81160;SDS011;70637;48.514;14.500;2024-01-16T10:59:24;2.05;;;1.13;;
81160;SDS011;70637;48.514;14.500;2024-01-16T11:01:58;2.65;;;1.00;;
81160;SDS011;70637;48.514;14.500;2024-01-16T11:04:27;2.13;;;0.90;;
81160;SDS011;70637;48.514;14.500;2024-01-16T11:06:53;2.22;;;1.20;;
81160;SDS011;70637;48.514;14.500;2024-01-16T11:09:20;2.15;;;0.93;;
81160;SDS011;70637;48.514;14.500;2024-01-16T11:11:46;2.55;;;1.10;;
81160;SDS011;70637;48.514;14.500;2024-01-16T11:14:15;1.63;;;0.70;;
81160;SDS011;70637;48.514;14.500;2024-01-16T11:16:41;2.80;;;1.20;;
81160;SDS011;70637;48.514;14.500;2024-01-16T11:19:08;1.98;;;1.05;;
81160;SDS011;70637;48.514;14.500;2024-01-16T11:21:34;1.77;;;0.90;;
81160;SDS011;70637;48.514;14.500;2024-01-16T11:24:01;1.90;;;0.90;;
81160;SDS011;70637;48.514;14.500;2024-01-16T11:26:32;3.47;;;1.30;;
81160;SDS011;70637;48.514;14.500;2024-01-16T11:31:52;3.95;;;1.60;;
81160;SDS011;70637;48.514;14.500;2024-01-16T11:34:52;4.53;;;2.00;;
81160;SDS011;70637;48.514;14.500;2024-01-16T11:37:15;4.47;;;1.90;;
81160;SDS011;70637;48.514;14.500;2024-01-16T11:42:44;6.43;;;2.65;;
81160;SDS011;70637;48.514;14.500;2024-01-16T11:48:09;7.95;;;2.90;;
81160;SDS011;70637;48.514;14.500;2024-01-16T11:50:35;8.55;;;3.05;;
81160;SDS011;70637;48.514;14.500;2024-01-16T11:53:01;9.02;;;3.25;;
81160;SDS011;70637;48.514;14.500;2024-01-16T11:55:27;8.60;;;3.50;;
81160;SDS011;70637;48.514;14.500;2024-01-16T12:00:55;8.10;;;3.10;;
81160;SDS011;70637;48.514;14.500;2024-01-16T12:03:22;9.05;;;3.28;;
81160;SDS011;70637;48.514;14.500;2024-01-16T12:05:57;7.72;;;3.03;;
81160;SDS011;70637;48.514;14.500;2024-01-16T12:08:24;7.80;;;2.70;;
81160;SDS011;70637;48.514;14.500;2024-01-16T12:10:50;5.95;;;2.58;;
81160;SDS011;70637;48.514;14.500;2024-01-16T12:13:15;9.05;;;3.08;;
81160;SDS011;70637;48.514;14.500;2024-01-16T12:15:41;9.32;;;3.05;;
81160;SDS011;70637;48.514;14.500;2024-01-16T12:18:08;9.95;;;3.40;;
81160;SDS011;70637;48.514;14.500;2024-01-16T12:20:34;10.00;;;3.20;;
81160;SDS011;70637;48.514;14.500;2024-01-16T12:25:29;8.40;;;3.20;;
81160;SDS011;70637;48.514;14.500;2024-01-16T12:28:00;8.10;;;3.05;;
81160;SDS011;70637;48.514;14.500;2024-01-16T12:30:27;8.20;;;2.90;;
81160;SDS011;70637;48.514;14.500;2024-01-16T12:33:06;9.40;;;2.85;;
81160;SDS011;70637;48.514;14.500;2024-01-16T12:35:42;9.80;;;3.10;;
81160;SDS011;70637;48.514;14.500;2024-01-16T12:38:10;8.77;;;2.80;;
81160;SDS011;70637;48.514;14.500;2024-01-16T12:40:41;7.53;;;3.05;;
81160;SDS011;70637;48.514;14.500;2024-01-16T12:43:08;7.05;;;2.58;;
81160;SDS011;70637;48.514;14.500;2024-01-16T12:45:36;7.45;;;2.67;;
81160;SDS011;70637;48.514;14.500;2024-01-16T12:48:03;6.50;;;2.33;;
81160;SDS011;70637;48.514;14.500;2024-01-16T12:50:29;6.13;;;2.67;;
81160;SDS011;70637;48.514;14.500;2024-01-16T12:55:28;9.55;;;2.85;;
81160;SDS011;70637;48.514;14.500;2024-01-16T13:00:46;7.00;;;2.47;;
81160;SDS011;70637;48.514;14.500;2024-01-16T13:03:19;9.55;;;2.67;;
81160;SDS011;70637;48.514;14.500;2024-01-16T13:05:56;6.63;;;2.78;;
81160;SDS011;70637;48.514;14.500;2024-01-16T13:08:23;6.45;;;2.45;;
81160;SDS011;70637;48.514;14.500;2024-01-16T13:11:02;7.13;;;2.67;;
81160;SDS011;70637;48.514;14.500;2024-01-16T13:13:28;7.05;;;2.50;;
81160;SDS011;70637;48.514;14.500;2024-01-16T13:15:55;6.43;;;2.80;;
81160;SDS011;70637;48.514;14.500;2024-01-16T13:18:25;7.60;;;2.78;;
81160;SDS011;70637;48.514;14.500;2024-01-16T13:20:54;5.75;;;2.33;;
81160;SDS011;70637;48.514;14.500;2024-01-16T13:23:21;7.88;;;2.63;;
81160;SDS011;70637;48.514;14.500;2024-01-16T13:25:48;6.20;;;2.70;;
81160;SDS011;70637;48.514;14.500;2024-01-16T13:28:15;6.43;;;2.60;;
81160;SDS011;70637;48.514;14.500;2024-01-16T13:30:42;7.22;;;2.65;;
81160;SDS011;70637;48.514;14.500;2024-01-16T13:33:09;6.93;;;2.40;;
81160;SDS011;70637;48.514;14.500;2024-01-16T13:35:35;7.72;;;2.38;;
81160;SDS011;70637;48.514;14.500;2024-01-16T13:38:04;7.88;;;2.65;;
81160;SDS011;70637;48.514;14.500;2024-01-16T13:40:31;7.10;;;2.72;;
81160;SDS011;70637;48.514;14.500;2024-01-16T13:42:57;7.60;;;2.70;;
81160;SDS011;70637;48.514;14.500;2024-01-16T13:45:24;7.82;;;2.72;;
81160;SDS011;70637;48.514;14.500;2024-01-16T13:47:49;6.55;;;2.25;;
81160;SDS011;70637;48.514;14.500;2024-01-16T13:50:15;5.47;;;2.10;;
81160;SDS011;70637;48.514;14.500;2024-01-16T13:52:42;10.02;;;3.00;;
81160;SDS011;70637;48.514;14.500;2024-01-16T13:55:08;7.15;;;2.10;;
81160;SDS011;70637;48.514;14.500;2024-01-16T13:57:35;6.15;;;2.25;;
81160;SDS011;70637;48.514;14.500;2024-01-16T14:00:03;7.45;;;2.55;;
81160;SDS011;70637;48.514;14.500;2024-01-16T14:02:30;6.05;;;2.50;;
81160;SDS011;70637;48.514;14.500;2024-01-16T14:04:56;5.88;;;2.45;;
81160;SDS011;70637;48.514;14.500;2024-01-16T14:07:21;5.93;;;2.40;;
81160;SDS011;70637;48.514;14.500;2024-01-16T14:09:47;6.22;;;2.60;;
81160;SDS011;70637;48.514;14.500;2024-01-16T14:12:13;6.32;;;2.10;;
81160;SDS011;70637;48.514;14.500;2024-01-16T14:14:40;7.18;;;2.63;;
81160;SDS011;70637;48.514;14.500;2024-01-16T14:17:06;5.72;;;2.63;;
81160;SDS011;70637;48.514;14.500;2024-01-16T14:19:34;4.57;;;2.03;;
81160;SDS011;70637;48.514;14.500;2024-01-16T14:22:00;6.25;;;2.35;;
81160;SDS011;70637;48.514;14.500;2024-01-16T14:24:26;5.35;;;2.13;;
81160;SDS011;70637;48.514;14.500;2024-01-16T14:26:51;6.88;;;2.35;;
81160;SDS011;70637;48.514;14.500;2024-01-16T14:29:17;6.97;;;2.22;;
81160;SDS011;70637;48.514;14.500;2024-01-16T14:31:43;5.78;;;2.40;;
81160;SDS011;70637;48.514;14.500;2024-01-16T14:34:13;6.32;;;2.10;;
81160;SDS011;70637;48.514;14.500;2024-01-16T14:36:39;5.40;;;2.17;;
81160;SDS011;70637;48.514;14.500;2024-01-16T14:39:05;5.55;;;2.42;;
81160;SDS011;70637;48.514;14.500;2024-01-16T14:41:31;7.25;;;2.40;;
81160;SDS011;70637;48.514;14.500;2024-01-16T14:43:57;6.57;;;2.22;;
81160;SDS011;70637;48.514;14.500;2024-01-16T14:46:23;6.00;;;2.22;;
81160;SDS011;70637;48.514;14.500;2024-01-16T14:48:49;7.53;;;2.65;;